createdAt,value
2023-05-22T03:13:38.625Z,100032.84
2023-05-22T03:16:41.691Z,100026.56
2023-05-22T03:19:44.015Z,100026.66
2023-05-22T03:22:46.472Z,100025.81
2023-05-22T03:25:48.755Z,100016.28
2023-05-22T03:28:51.330Z,100018.12
2023-05-22T03:31:54.670Z,100022.56
2023-05-22T03:34:58.446Z,100027.91
2023-05-22T03:38:00.884Z,100027.97
2023-05-22T03:41:03.441Z,100025.44
2023-05-22T03:44:06.074Z,100030.78
2023-05-22T03:47:08.899Z,100036.19
2023-05-22T03:50:11.504Z,100026.63
2023-05-22T03:53:14.137Z,100024.16
2023-05-22T03:56:16.817Z,100021.62
2023-05-22T03:59:19.352Z,100020.06
2023-05-22T04:02:22.055Z,100014.16
2023-05-22T04:05:26.728Z,100024.94
2023-05-22T04:08:29.068Z,100019.09
2023-05-22T04:11:32.273Z,100026.25
2023-05-22T04:14:34.986Z,100026.72
2023-05-22T04:17:41.048Z,100029.00
2023-05-22T04:20:43.316Z,100025.97
2023-05-22T04:23:46.152Z,100021.13
2023-05-22T04:26:49.204Z,100026.75
2023-05-22T04:29:51.795Z,100025.22
2023-05-22T04:32:54.050Z,100029.88
2023-05-22T04:35:57.671Z,100028.34
2023-05-22T04:39:04.652Z,100024.94
2023-05-22T04:42:08.961Z,100020.84
2023-05-22T04:45:11.455Z,100018.59
2023-05-22T04:48:15.372Z,100019.94
2023-05-22T04:51:17.575Z,100015.06
2023-05-22T04:54:20.559Z,100018.78
2023-05-22T04:57:25.587Z,100022.72
2023-05-22T05:00:28.985Z,100027.94
2023-05-22T05:03:32.342Z,100025.62
2023-05-22T05:06:35.880Z,100031.22
2023-05-22T05:09:38.233Z,100035.84
2023-05-22T05:12:41.352Z,100030.00
2023-05-22T05:15:43.625Z,100034.84
2023-05-22T05:18:46.133Z,100026.87
2023-05-22T05:21:49.713Z,100030.94
2023-05-22T05:24:52.641Z,100032.72
2023-05-22T05:27:54.851Z,100043.22
2023-05-22T05:30:58.613Z,100040.94
2023-05-22T05:34:01.141Z,100035.19
2023-05-22T05:37:05.446Z,100047.84
2023-05-22T05:40:08.602Z,100038.47
2023-05-22T05:43:11.295Z,100035.19
2023-05-22T05:46:14.421Z,100045.84
2023-05-22T05:49:17.028Z,100052.03
2023-05-22T05:52:19.774Z,100056.56
2023-05-22T05:55:23.593Z,100052.16
2023-05-22T05:58:26.003Z,100055.78
2023-05-22T06:01:32.962Z,100056.66
2023-05-22T06:04:36.735Z,100052.16
2023-05-22T06:07:40.086Z,100046.84
2023-05-22T06:10:55.153Z,100047.50
2023-05-22T06:14:08.802Z,100061.59
2023-05-22T06:17:12.447Z,100052.97
2023-05-22T06:20:15.594Z,100047.81
2023-05-22T06:23:18.042Z,100046.94
2023-05-22T06:26:22.342Z,100047.78
2023-05-22T06:29:26.288Z,100055.72
2023-05-22T06:32:32.157Z,100058.31
2023-05-22T06:35:34.886Z,100052.06
2023-05-22T06:38:38.058Z,100059.81
2023-05-22T06:41:41.383Z,100052.94
2023-05-22T06:44:44.653Z,100043.38
2023-05-22T06:47:47.235Z,100058.44
2023-05-22T06:50:50.044Z,100055.66
2023-05-22T06:53:52.854Z,100052.81
2023-05-22T06:56:56.216Z,100048.75
2023-05-22T07:00:01.099Z,100056.03
2023-05-22T07:03:06.773Z,100051.38
2023-05-22T07:06:09.622Z,100053.59
2023-05-22T07:09:12.684Z,100059.12
2023-05-22T07:12:15.408Z,100062.88
2023-05-22T07:15:17.794Z,100062.91
2023-05-22T07:18:21.172Z,100071.28
2023-05-22T07:21:26.418Z,100067.50
2023-05-22T07:24:30.833Z,100064.13
2023-05-22T07:27:34.162Z,100057.41
2023-05-22T07:30:38.602Z,100053.13
2023-05-22T07:33:41.551Z,100046.84
2023-05-22T07:36:45.427Z,100042.22
2023-05-22T07:39:47.653Z,100052.00
2023-05-22T07:42:50.652Z,100049.50
2023-05-22T07:45:54.139Z,100042.47
2023-05-22T07:48:58.419Z,100045.13
2023-05-22T07:52:00.861Z,100048.56
2023-05-22T07:55:04.750Z,100040.44
2023-05-22T07:58:08.481Z,100045.00
2023-05-22T08:01:11.649Z,100055.75
2023-05-22T08:04:14.427Z,100056.66
2023-05-22T08:07:17.277Z,100056.63
2023-05-22T08:10:20.049Z,100052.22
2023-05-22T08:13:22.447Z,100047.63
2023-05-22T08:16:25.122Z,100048.41
2023-05-22T08:19:27.458Z,100047.59
2023-05-22T08:22:31.162Z,100047.53
2023-05-22T08:25:33.558Z,100051.50
2023-05-22T08:28:36.819Z,100044.22
2023-05-22T08:31:39.274Z,100045.75
2023-05-22T08:34:42.137Z,100043.41
2023-05-22T08:37:44.567Z,100052.81
2023-05-22T08:40:49.745Z,100050.72
2023-05-22T08:43:52.021Z,100048.22
2023-05-22T08:46:56.632Z,100041.13
2023-05-22T08:50:00.173Z,100051.28
2023-05-22T08:53:03.573Z,100046.03
2023-05-22T08:56:07.026Z,100050.16
2023-05-22T08:59:10.853Z,100042.94
2023-05-22T09:02:13.591Z,100042.03
2023-05-22T09:05:19.579Z,100047.59
2023-05-22T09:08:21.873Z,100040.25
2023-05-22T09:11:24.793Z,100035.84
2023-05-22T09:14:27.296Z,100036.16
2023-05-22T09:17:29.810Z,100038.44
2023-05-22T09:20:39.212Z,100033.66
2023-05-22T09:23:42.018Z,100033.94
2023-05-22T09:26:44.283Z,100031.38
2023-05-22T09:29:53.516Z,100031.78
2023-05-22T09:32:57.114Z,100022.97
2023-05-22T09:36:00.169Z,100027.72
2023-05-22T09:39:04.369Z,100019.47
2023-05-22T09:42:08.946Z,100025.47
2023-05-22T09:45:11.548Z,100020.31
2023-05-22T09:48:17.583Z,100030.59
2023-05-22T09:51:23.789Z,100026.09
2023-05-22T09:54:27.692Z,100020.37
2023-05-22T09:57:33.723Z,100026.53
2023-05-22T10:00:36.817Z,100015.66
2023-05-22T10:03:40.914Z,100015.12
2023-05-22T10:06:47.251Z,100010.72
2023-05-22T10:09:56.964Z,100011.53
2023-05-22T10:13:04.898Z,100004.72
2023-05-22T10:16:08.177Z,100008.41
2023-05-22T10:19:12.192Z,100006.09
2023-05-22T10:22:20.711Z,99997.38
2023-05-22T10:25:23.477Z,100003.75
2023-05-22T10:28:30.907Z,99992.56
2023-05-22T10:31:44.342Z,99993.53
2023-05-22T10:34:56.356Z,99989.53
2023-05-22T10:38:13.889Z,99982.47
2023-05-22T10:41:17.128Z,99970.63
2023-05-22T10:44:19.417Z,99977.38
2023-05-22T10:47:21.939Z,99970.09
2023-05-22T10:50:24.400Z,99968.38
2023-05-22T10:53:31.308Z,99970.31
2023-05-22T10:56:35.386Z,99963.75
2023-05-22T10:59:38.127Z,99961.44
2023-05-22T11:02:45.558Z,99951.72
2023-05-22T11:05:53.829Z,99944.75
2023-05-22T11:08:57.539Z,99943.78
2023-05-22T11:12:13.488Z,99941.06
2023-05-22T11:15:16.008Z,99941.06
2023-05-22T11:18:18.561Z,99938.66
2023-05-22T11:21:22.333Z,99929.62
2023-05-22T11:24:24.881Z,99935.66
2023-05-22T11:27:27.498Z,99933.09
2023-05-22T11:30:32.800Z,99938.97
2023-05-22T11:33:35.129Z,99930.81
2023-05-22T11:36:38.509Z,99933.50
2023-05-22T11:39:40.754Z,99928.03
2023-05-22T11:42:43.654Z,99927.50
2023-05-22T11:45:46.004Z,99916.41
2023-05-22T11:48:48.567Z,99920.31
2023-05-22T11:51:51.796Z,99910.78
2023-05-22T11:54:54.398Z,99916.97
2023-05-22T11:57:56.727Z,99913.50
2023-05-22T12:01:02.084Z,99910.53
2023-05-22T12:04:05.305Z,99910.22
2023-05-22T12:07:08.859Z,99911.16
2023-05-22T12:10:11.563Z,99911.22
2023-05-22T12:13:13.818Z,99905.06
2023-05-22T12:16:25.177Z,99905.31
2023-05-22T12:19:27.949Z,99897.53
2023-05-22T12:22:30.488Z,99892.31
2023-05-22T12:25:39.249Z,99890.06
2023-05-22T12:28:41.698Z,99886.34
2023-05-22T12:31:46.470Z,99883.12
2023-05-22T12:34:50.354Z,99872.25
2023-05-22T12:37:52.667Z,99874.91
2023-05-22T12:40:56.538Z,99872.97
2023-05-22T12:43:58.877Z,99861.97
2023-05-22T12:47:01.416Z,99863.34
2023-05-22T12:50:03.815Z,99858.69
2023-05-22T12:53:06.426Z,99854.97
2023-05-22T12:56:08.622Z,99849.94
2023-05-22T12:59:11.020Z,99848.91
2023-05-22T13:02:13.471Z,99846.28
2023-05-22T13:05:16.274Z,99842.69
2023-05-22T13:08:18.605Z,99839.66
2023-05-22T13:11:23.419Z,99833.53
2023-05-22T13:14:25.683Z,99832.97
2023-05-22T13:17:28.680Z,99826.13
2023-05-22T13:20:30.896Z,99825.53
2023-05-22T13:23:33.362Z,99823.72
2023-05-22T13:26:35.522Z,99817.66
2023-05-22T13:29:38.299Z,99812.66
2023-05-22T13:32:40.796Z,99810.25
2023-05-22T13:35:43.346Z,99807.31
2023-05-22T13:38:45.518Z,99812.84
2023-05-22T13:41:48.228Z,99811.91
2023-05-22T13:44:50.461Z,99812.47
2023-05-22T13:47:53.348Z,99803.00
2023-05-22T13:50:55.669Z,99802.87
2023-05-22T13:53:58.218Z,99801.94
2023-05-22T13:57:02.463Z,99799.81
2023-05-22T14:00:05.505Z,99801.72
2023-05-22T14:03:11.439Z,99807.72
2023-05-22T14:06:13.833Z,99796.69
2023-05-22T14:09:16.680Z,99809.00
2023-05-22T14:12:18.945Z,99801.19
2023-05-22T14:15:21.726Z,99792.66
2023-05-22T14:18:24.060Z,99794.78
2023-05-22T14:21:27.178Z,99788.75
2023-05-22T14:24:29.486Z,99779.81
2023-05-22T14:27:31.987Z,99783.50
2023-05-22T14:30:34.288Z,99787.13
2023-05-22T14:33:37.049Z,99775.84
2023-05-22T14:36:39.215Z,99775.41
2023-05-22T14:39:41.650Z,99780.97
2023-05-22T14:42:44.612Z,99784.75
2023-05-22T14:45:47.057Z,99788.22
2023-05-22T14:48:49.319Z,99781.44
2023-05-22T14:51:52.888Z,99777.06
2023-05-22T14:54:55.088Z,99776.19
2023-05-22T14:57:57.632Z,99782.63
2023-05-22T15:00:59.844Z,99780.13
2023-05-22T15:04:02.338Z,99777.41
2023-05-22T15:07:05.084Z,99776.03
2023-05-22T15:10:08.286Z,99773.09
2023-05-22T15:13:11.689Z,99776.06
2023-05-22T15:16:14.175Z,99770.31
2023-05-22T15:19:16.435Z,99771.09
2023-05-22T15:22:20.155Z,99768.47
